sensor_id;sensor_type;location;lat;lon;timestamp;pressure;altitude;pressure_sealevel;temperature;humidity
13604;BME280;24578;48.264;11.436;2023-03-11T00:01:28;94869.84;;;0.93;100.00
13604;BME280;24578;48.264;11.436;2023-03-11T00:04:50;94850.19;;;1.10;100.00
13604;BME280;24578;48.264;11.436;2023-03-11T00:08:15;94842.19;;;1.01;100.00
13604;BME280;24578;48.264;11.436;2023-03-11T00:11:37;94833.44;;;0.91;100.00
13604;BME280;24578;48.264;11.436;2023-03-11T00:15:01;94847.50;;;0.82;100.00
13604;BME280;24578;48.264;11.436;2023-03-11T00:18:24;94855.56;;;0.74;100.00
13604;BME280;24578;48.264;11.436;2023-03-11T00:21:47;94838.94;;;0.83;100.00
13604;BME280;24578;48.264;11.436;2023-03-11T00:25:10;94856.94;;;0.80;100.00
13604;BME280;24578;48.264;11.436;2023-03-11T00:28:32;94853.06;;;0.89;100.00
13604;BME280;24578;48.264;11.436;2023-03-11T00:31:54;94832.78;;;1.02;100.00
13604;BME280;24578;48.264;11.436;2023-03-11T00:35:23;94844.78;;;0.85;100.00
13604;BME280;24578;48.264;11.436;2023-03-11T00:38:45;94881.69;;;0.78;100.00
13604;BME280;24578;48.264;11.436;2023-03-11T00:42:07;94879.31;;;0.75;100.00
13604;BME280;24578;48.264;11.436;2023-03-11T00:45:29;94885.88;;;0.79;100.00
13604;BME280;24578;48.264;11.436;2023-03-11T00:48:51;94885.28;;;0.74;100.00
13604;BME280;24578;48.264;11.436;2023-03-11T00:52:13;94882.84;;;0.72;100.00
13604;BME280;24578;48.264;11.436;2023-03-11T00:55:35;94906.69;;;0.71;100.00
13604;BME280;24578;48.264;11.436;2023-03-11T00:58:57;94901.50;;;0.57;100.00
13604;BME280;24578;48.264;11.436;2023-03-11T01:02:18;94913.41;;;0.56;100.00
13604;BME280;24578;48.264;11.436;2023-03-11T01:05:40;94926.31;;;0.53;100.00
13604;BME280;24578;48.264;11.436;2023-03-11T01:09:02;94925.06;;;0.60;100.00
13604;BME280;24578;48.264;11.436;2023-03-11T01:12:25;94906.53;;;0.42;100.00
13604;BME280;24578;48.264;11.436;2023-03-11T01:15:46;94900.44;;;0.45;100.00
13604;BME280;24578;48.264;11.436;2023-03-11T01:19:08;94885.81;;;0.49;100.00
13604;BME280;24578;48.264;11.436;2023-03-11T01:22:30;94887.72;;;0.45;100.00
13604;BME280;24578;48.264;11.436;2023-03-11T01:25:52;94879.25;;;0.44;100.00
13604;BME280;24578;48.264;11.436;2023-03-11T01:29:13;94912.91;;;0.50;100.00
13604;BME280;24578;48.264;11.436;2023-03-11T01:32:35;94935.09;;;0.32;100.00
13604;BME280;24578;48.264;11.436;2023-03-11T01:35:57;94926.72;;;0.29;100.00
13604;BME280;24578;48.264;11.436;2023-03-11T01:39:18;94928.09;;;0.35;100.00
13604;BME280;24578;48.264;11.436;2023-03-11T01:42:40;94929.19;;;0.31;100.00
13604;BME280;24578;48.264;11.436;2023-03-11T01:46:24;94940.03;;;0.35;100.00
13604;BME280;24578;48.264;11.436;2023-03-11T01:49:47;94932.94;;;0.24;100.00
13604;BME280;24578;48.264;11.436;2023-03-11T01:53:10;94921.22;;;0.21;100.00
13604;BME280;24578;48.264;11.436;2023-03-11T01:56:34;94920.63;;;0.16;100.00
13604;BME280;24578;48.264;11.436;2023-03-11T01:59:58;94915.38;;;0.19;100.00
13604;BME280;24578;48.264;11.436;2023-03-11T02:03:30;94910.28;;;0.19;100.00
13604;BME280;24578;48.264;11.436;2023-03-11T02:06:55;94931.81;;;0.29;100.00
13604;BME280;24578;48.264;11.436;2023-03-11T02:10:17;94933.09;;;0.21;100.00
13604;BME280;24578;48.264;11.436;2023-03-11T02:13:40;94925.88;;;0.13;100.00
13604;BME280;24578;48.264;11.436;2023-03-11T02:17:03;94933.22;;;0.02;100.00
13604;BME280;24578;48.264;11.436;2023-03-11T02:24:18;94945.34;;;-0.04;100.00
13604;BME280;24578;48.264;11.436;2023-03-11T02:27:48;94937.31;;;-0.12;100.00
13604;BME280;24578;48.264;11.436;2023-03-11T02:31:10;94935.97;;;-0.19;100.00
13604;BME280;24578;48.264;11.436;2023-03-11T02:34:35;94938.88;;;-0.27;100.00
13604;BME280;24578;48.264;11.436;2023-03-11T02:37:57;94933.50;;;-0.21;100.00
13604;BME280;24578;48.264;11.436;2023-03-11T02:41:18;94947.94;;;-0.21;100.00
13604;BME280;24578;48.264;11.436;2023-03-11T02:44:43;94950.84;;;-0.11;100.00
13604;BME280;24578;48.264;11.436;2023-03-11T02:48:09;94947.28;;;-0.25;100.00
13604;BME280;24578;48.264;11.436;2023-03-11T02:51:32;94947.13;;;-0.22;100.00
13604;BME280;24578;48.264;11.436;2023-03-11T02:54:54;94951.09;;;-0.34;100.00
13604;BME280;24578;48.264;11.436;2023-03-11T02:58:16;94951.63;;;-0.44;100.00
13604;BME280;24578;48.264;11.436;2023-03-11T03:01:37;94959.19;;;-0.43;100.00
13604;BME280;24578;48.264;11.436;2023-03-11T03:04:59;94975.56;;;-0.49;100.00
13604;BME280;24578;48.264;11.436;2023-03-11T03:08:21;94964.66;;;-0.51;100.00
13604;BME280;24578;48.264;11.436;2023-03-11T03:11:42;94982.34;;;-0.49;100.00
13604;BME280;24578;48.264;11.436;2023-03-11T03:15:05;94988.28;;;-0.49;100.00
13604;BME280;24578;48.264;11.436;2023-03-11T03:18:27;94982.28;;;-0.48;100.00
13604;BME280;24578;48.264;11.436;2023-03-11T03:21:48;94993.13;;;-0.44;100.00
13604;BME280;24578;48.264;11.436;2023-03-11T03:25:10;94996.84;;;-0.51;100.00
13604;BME280;24578;48.264;11.436;2023-03-11T03:28:32;95001.88;;;-0.50;100.00
13604;BME280;24578;48.264;11.436;2023-03-11T03:31:54;94988.56;;;-0.55;100.00
13604;BME280;24578;48.264;11.436;2023-03-11T03:35:15;94979.88;;;-0.68;100.00
13604;BME280;24578;48.264;11.436;2023-03-11T03:38:37;94981.75;;;-0.72;100.00
13604;BME280;24578;48.264;11.436;2023-03-11T03:41:59;95006.03;;;-0.84;100.00
13604;BME280;24578;48.264;11.436;2023-03-11T03:45:21;94997.06;;;-0.73;100.00
13604;BME280;24578;48.264;11.436;2023-03-11T03:48:42;94994.47;;;-0.72;100.00
13604;BME280;24578;48.264;11.436;2023-03-11T03:52:05;94991.09;;;-0.72;100.00
13604;BME280;24578;48.264;11.436;2023-03-11T03:55:27;94999.69;;;-0.75;100.00
13604;BME280;24578;48.264;11.436;2023-03-11T03:58:49;94997.06;;;-0.73;100.00
13604;BME280;24578;48.264;11.436;2023-03-11T04:02:10;95006.41;;;-0.74;100.00
13604;BME280;24578;48.264;11.436;2023-03-11T04:05:32;95007.00;;;-0.86;100.00
13604;BME280;24578;48.264;11.436;2023-03-11T04:08:54;95007.50;;;-0.97;100.00
13604;BME280;24578;48.264;11.436;2023-03-11T04:12:16;95014.41;;;-1.01;100.00
13604;BME280;24578;48.264;11.436;2023-03-11T04:15:38;95024.66;;;-1.02;100.00
13604;BME280;24578;48.264;11.436;2023-03-11T04:19:00;95039.75;;;-0.99;100.00
13604;BME280;24578;48.264;11.436;2023-03-11T04:22:21;95025.31;;;-0.99;100.00
13604;BME280;24578;48.264;11.436;2023-03-11T04:25:43;95024.22;;;-0.93;100.00
13604;BME280;24578;48.264;11.436;2023-03-11T04:29:05;95023.72;;;-0.82;100.00
13604;BME280;24578;48.264;11.436;2023-03-11T04:32:26;95026.44;;;-0.68;100.00
13604;BME280;24578;48.264;11.436;2023-03-11T04:35:48;95027.94;;;-0.64;100.00
13604;BME280;24578;48.264;11.436;2023-03-11T04:39:10;95036.47;;;-0.65;100.00
13604;BME280;24578;48.264;11.436;2023-03-11T04:42:32;95041.50;;;-0.63;100.00
13604;BME280;24578;48.264;11.436;2023-03-11T04:45:53;95043.81;;;-0.58;100.00
13604;BME280;24578;48.264;11.436;2023-03-11T04:49:15;95044.72;;;-0.59;100.00
13604;BME280;24578;48.264;11.436;2023-03-11T04:52:37;95052.94;;;-0.54;100.00
13604;BME280;24578;48.264;11.436;2023-03-11T04:55:59;95055.28;;;-0.50;100.00
13604;BME280;24578;48.264;11.436;2023-03-11T04:59:20;95072.72;;;-0.42;100.00
13604;BME280;24578;48.264;11.436;2023-03-11T05:02:42;95074.41;;;-0.42;100.00
13604;BME280;24578;48.264;11.436;2023-03-11T05:06:04;95070.84;;;-0.38;100.00
13604;BME280;24578;48.264;11.436;2023-03-11T05:09:26;95068.38;;;-0.22;100.00
13604;BME280;24578;48.264;11.436;2023-03-11T05:12:51;95079.22;;;-0.36;100.00
13604;BME280;24578;48.264;11.436;2023-03-11T05:16:13;95081.00;;;-0.38;100.00
13604;BME280;24578;48.264;11.436;2023-03-11T05:19:39;95078.56;;;-0.40;100.00
13604;BME280;24578;48.264;11.436;2023-03-11T05:23:01;95080.25;;;-0.40;100.00
13604;BME280;24578;48.264;11.436;2023-03-11T05:26:24;95076.00;;;-0.40;100.00
13604;BME280;24578;48.264;11.436;2023-03-11T05:29:46;95085.56;;;-0.45;100.00
13604;BME280;24578;48.264;11.436;2023-03-11T05:33:07;95101.22;;;-0.54;100.00
13604;BME280;24578;48.264;11.436;2023-03-11T05:36:29;95103.94;;;-0.57;100.00
13604;BME280;24578;48.264;11.436;2023-03-11T05:39:51;95108.84;;;-0.35;100.00
13604;BME280;24578;48.264;11.436;2023-03-11T05:43:13;95116.00;;;-0.43;100.00
13604;BME280;24578;48.264;11.436;2023-03-11T05:46:35;95122.19;;;-0.49;100.00
13604;BME280;24578;48.264;11.436;2023-03-11T05:49:57;95113.75;;;-0.50;100.00
13604;BME280;24578;48.264;11.436;2023-03-11T05:53:18;95113.25;;;-0.58;100.00
13604;BME280;24578;48.264;11.436;2023-03-11T05:56:42;95118.00;;;-0.50;100.00
13604;BME280;24578;48.264;11.436;2023-03-11T06:00:05;95121.56;;;-0.54;100.00
13604;BME280;24578;48.264;11.436;2023-03-11T06:03:30;95121.50;;;-0.53;100.00
13604;BME280;24578;48.264;11.436;2023-03-11T06:06:52;95129.63;;;-0.64;100.00
13604;BME280;24578;48.264;11.436;2023-03-11T06:10:14;95135.47;;;-0.62;100.00
13604;BME280;24578;48.264;11.436;2023-03-11T06:13:36;95129.91;;;-0.70;100.00
13604;BME280;24578;48.264;11.436;2023-03-11T06:16:58;95143.44;;;-0.69;100.00
13604;BME280;24578;48.264;11.436;2023-03-11T06:20:20;95147.84;;;-0.73;100.00
13604;BME280;24578;48.264;11.436;2023-03-11T06:23:42;95150.19;;;-0.68;100.00
13604;BME280;24578;48.264;11.436;2023-03-11T06:27:03;95149.97;;;-0.64;100.00
13604;BME280;24578;48.264;11.436;2023-03-11T06:30:25;95154.63;;;-0.54;100.00
13604;BME280;24578;48.264;11.436;2023-03-11T06:33:47;95160.06;;;-0.43;100.00
13604;BME280;24578;48.264;11.436;2023-03-11T06:37:09;95157.50;;;-0.43;100.00
13604;BME280;24578;48.264;11.436;2023-03-11T06:40:31;95163.00;;;-0.33;100.00
13604;BME280;24578;48.264;11.436;2023-03-11T06:43:53;95167.97;;;-0.12;100.00
13604;BME280;24578;48.264;11.436;2023-03-11T06:47:15;95170.31;;;0.10;100.00
13604;BME280;24578;48.264;11.436;2023-03-11T06:50:37;95177.16;;;0.09;100.00
13604;BME280;24578;48.264;11.436;2023-03-11T06:53:59;95183.22;;;0.24;100.00
13604;BME280;24578;48.264;11.436;2023-03-11T06:57:21;95183.69;;;0.50;100.00
13604;BME280;24578;48.264;11.436;2023-03-11T07:00:42;95179.47;;;0.32;100.00
13604;BME280;24578;48.264;11.436;2023-03-11T07:04:04;95193.09;;;0.30;100.00
13604;BME280;24578;48.264;11.436;2023-03-11T07:07:26;95204.88;;;0.51;100.00
13604;BME280;24578;48.264;11.436;2023-03-11T07:10:59;95199.13;;;0.98;100.00
13604;BME280;24578;48.264;11.436;2023-03-11T07:14:21;95206.59;;;1.19;100.00
13604;BME280;24578;48.264;11.436;2023-03-11T07:17:42;95218.94;;;1.76;100.00
13604;BME280;24578;48.264;11.436;2023-03-11T07:21:06;95221.47;;;2.55;96.52
13604;BME280;24578;48.264;11.436;2023-03-11T07:24:28;95228.31;;;2.99;92.05
13604;BME280;24578;48.264;11.436;2023-03-11T07:27:50;95233.63;;;2.19;92.04
13604;BME280;24578;48.264;11.436;2023-03-11T07:31:16;95240.84;;;2.43;92.26
13604;BME280;24578;48.264;11.436;2023-03-11T07:34:39;95237.78;;;4.53;80.04
13604;BME280;24578;48.264;11.436;2023-03-11T07:38:00;95227.34;;;7.53;63.47
13604;BME280;24578;48.264;11.436;2023-03-11T07:41:23;95229.72;;;8.66;50.71
13604;BME280;24578;48.264;11.436;2023-03-11T07:44:44;95231.38;;;10.03;44.45
13604;BME280;24578;48.264;11.436;2023-03-11T07:48:06;95228.50;;;11.63;37.53
13604;BME280;24578;48.264;11.436;2023-03-11T07:51:31;95226.47;;;10.80;36.53
13604;BME280;24578;48.264;11.436;2023-03-11T07:54:53;95232.59;;;10.69;36.78
13604;BME280;24578;48.264;11.436;2023-03-11T07:58:15;95223.13;;;13.03;33.34
13604;BME280;24578;48.264;11.436;2023-03-11T08:01:36;95214.63;;;14.06;30.31
13604;BME280;24578;48.264;11.436;2023-03-11T08:05:01;95215.56;;;13.36;31.64
13604;BME280;24578;48.264;11.436;2023-03-11T08:08:23;95219.31;;;13.60;30.70
13604;BME280;24578;48.264;11.436;2023-03-11T08:11:44;95216.84;;;12.87;31.42
13604;BME280;24578;48.264;11.436;2023-03-11T08:15:07;95215.66;;;13.26;31.29
13604;BME280;24578;48.264;11.436;2023-03-11T08:18:29;95222.59;;;14.05;29.57
13604;BME280;24578;48.264;11.436;2023-03-11T08:21:51;95231.22;;;13.70;30.00
13604;BME280;24578;48.264;11.436;2023-03-11T08:25:13;95241.88;;;13.33;31.20
13604;BME280;24578;48.264;11.436;2023-03-11T08:28:35;95242.41;;;13.63;30.16
13604;BME280;24578;48.264;11.436;2023-03-11T08:31:57;95246.41;;;14.26;29.10
13604;BME280;24578;48.264;11.436;2023-03-11T08:35:19;95242.38;;;13.54;30.07
13604;BME280;24578;48.264;11.436;2023-03-11T08:38:41;95248.22;;;13.38;31.80
13604;BME280;24578;48.264;11.436;2023-03-11T08:42:03;95250.47;;;12.53;31.68
13604;BME280;24578;48.264;11.436;2023-03-11T08:45:24;95270.22;;;10.63;34.08
13604;BME280;24578;48.264;11.436;2023-03-11T08:48:46;95263.44;;;10.31;34.83
13604;BME280;24578;48.264;11.436;2023-03-11T08:52:08;95273.75;;;9.81;35.76
13604;BME280;24578;48.264;11.436;2023-03-11T08:55:30;95279.28;;;10.38;35.01
13604;BME280;24578;48.264;11.436;2023-03-11T08:58:51;95261.38;;;11.53;32.14
13604;BME280;24578;48.264;11.436;2023-03-11T09:02:13;95264.81;;;11.53;32.52
13604;BME280;24578;48.264;11.436;2023-03-11T09:05:35;95270.44;;;11.86;32.11
13604;BME280;24578;48.264;11.436;2023-03-11T09:08:57;95263.06;;;12.47;30.07
13604;BME280;24578;48.264;11.436;2023-03-11T09:12:19;95272.31;;;12.32;30.69
13604;BME280;24578;48.264;11.436;2023-03-11T09:15:41;95270.50;;;12.78;29.51
13604;BME280;24578;48.264;11.436;2023-03-11T09:19:03;95262.84;;;13.39;28.88
13604;BME280;24578;48.264;11.436;2023-03-11T09:22:28;95258.31;;;13.94;29.07
13604;BME280;24578;48.264;11.436;2023-03-11T09:25:50;95267.94;;;14.02;27.89
13604;BME280;24578;48.264;11.436;2023-03-11T09:29:12;95278.59;;;14.68;26.60
13604;BME280;24578;48.264;11.436;2023-03-11T09:32:34;95262.22;;;13.98;29.40
13604;BME280;24578;48.264;11.436;2023-03-11T09:35:57;95268.91;;;13.66;27.86
13604;BME280;24578;48.264;11.436;2023-03-11T09:39:19;95278.75;;;11.33;31.15
13604;BME280;24578;48.264;11.436;2023-03-11T09:46:49;95294.03;;;9.54;34.87
13604;BME280;24578;48.264;11.436;2023-03-11T09:50:25;95289.75;;;9.22;35.58
13604;BME280;24578;48.264;11.436;2023-03-11T09:53:54;95292.13;;;11.28;33.18
13604;BME280;24578;48.264;11.436;2023-03-11T09:57:31;95307.66;;;10.59;33.05
13604;BME280;24578;48.264;11.436;2023-03-11T10:00:55;95325.84;;;8.80;36.73
13604;BME280;24578;48.264;11.436;2023-03-11T10:04:28;95335.50;;;7.53;38.88
13604;BME280;24578;48.264;11.436;2023-03-11T10:08:18;95337.94;;;6.59;41.44
13604;BME280;24578;48.264;11.436;2023-03-11T10:19:35;95327.03;;;10.94;33.90
13604;BME280;24578;48.264;11.436;2023-03-11T10:23:26;95335.06;;;8.16;39.41
13604;BME280;24578;48.264;11.436;2023-03-11T10:26:58;95352.19;;;6.76;41.43
13604;BME280;24578;48.264;11.436;2023-03-11T10:30:26;95358.28;;;6.24;43.75
13604;BME280;24578;48.264;11.436;2023-03-11T10:33:56;95344.84;;;8.79;39.49
13604;BME280;24578;48.264;11.436;2023-03-11T10:37:26;95323.81;;;12.27;31.32
13604;BME280;24578;48.264;11.436;2023-03-11T10:40:53;95336.53;;;10.64;33.42
13604;BME280;24578;48.264;11.436;2023-03-11T10:47:50;95341.16;;;7.81;38.28
13604;BME280;24578;48.264;11.436;2023-03-11T10:51:16;95358.50;;;6.96;41.76
13604;BME280;24578;48.264;11.436;2023-03-11T10:54:46;95357.69;;;5.82;43.98
13604;BME280;24578;48.264;11.436;2023-03-11T10:58:13;95363.88;;;5.79;43.60
13604;BME280;24578;48.264;11.436;2023-03-11T11:01:36;95357.50;;;5.98;44.67
13604;BME280;24578;48.264;11.436;2023-03-11T11:05:25;95355.56;;;6.52;42.35
13604;BME280;24578;48.264;11.436;2023-03-11T11:08:47;95352.72;;;7.64;41.19
13604;BME280;24578;48.264;11.436;2023-03-11T11:12:14;95352.38;;;8.59;38.84
13604;BME280;24578;48.264;11.436;2023-03-11T11:15:50;95345.28;;;7.83;39.92
13604;BME280;24578;48.264;11.436;2023-03-11T11:19:13;95366.38;;;7.06;41.08
13604;BME280;24578;48.264;11.436;2023-03-11T11:22:36;95356.81;;;7.66;41.03
13604;BME280;24578;48.264;11.436;2023-03-11T11:26:01;95355.78;;;9.04;37.01
13604;BME280;24578;48.264;11.436;2023-03-11T11:29:25;95358.22;;;7.59;40.60
13604;BME280;24578;48.264;11.436;2023-03-11T11:32:46;95353.59;;;7.40;41.04
13604;BME280;24578;48.264;11.436;2023-03-11T11:36:14;95357.16;;;7.14;41.76
13604;BME280;24578;48.264;11.436;2023-03-11T11:39:49;95345.69;;;7.19;41.92
13604;BME280;24578;48.264;11.436;2023-03-11T11:43:17;95334.59;;;8.33;40.65
13604;BME280;24578;48.264;11.436;2023-03-11T11:46:58;95319.38;;;9.39;36.90
13604;BME280;24578;48.264;11.436;2023-03-11T11:50:30;95326.38;;;9.49;37.63
13604;BME280;24578;48.264;11.436;2023-03-11T11:57:23;95336.53;;;9.40;36.26
13604;BME280;24578;48.264;11.436;2023-03-11T12:01:14;95325.72;;;9.14;35.75
13604;BME280;24578;48.264;11.436;2023-03-11T12:04:49;95319.03;;;8.12;37.92
13604;BME280;24578;48.264;11.436;2023-03-11T12:08:16;95330.59;;;8.96;38.25
13604;BME280;24578;48.264;11.436;2023-03-11T12:15:15;95317.16;;;9.35;35.90
13604;BME280;24578;48.264;11.436;2023-03-11T12:18:43;95305.16;;;10.38;34.22
13604;BME280;24578;48.264;11.436;2023-03-11T12:29:42;95322.97;;;8.39;37.54
13604;BME280;24578;48.264;11.436;2023-03-11T12:36:40;95327.69;;;7.88;36.79
13604;BME280;24578;48.264;11.436;2023-03-11T12:44:25;95312.69;;;7.71;39.72
13604;BME280;24578;48.264;11.436;2023-03-11T12:55:36;95301.94;;;10.75;34.90
13604;BME280;24578;48.264;11.436;2023-03-11T13:07:12;95289.84;;;10.95;34.38
13604;BME280;24578;48.264;11.436;2023-03-11T13:10:45;95292.53;;;10.84;33.72
13604;BME280;24578;48.264;11.436;2023-03-11T13:17:36;95296.31;;;9.48;37.53
13604;BME280;24578;48.264;11.436;2023-03-11T13:20:59;95300.72;;;9.57;36.37
13604;BME280;24578;48.264;11.436;2023-03-11T13:27:50;95303.97;;;10.21;34.82
13604;BME280;24578;48.264;11.436;2023-03-11T13:42:32;95318.09;;;8.02;37.83
13604;BME280;24578;48.264;11.436;2023-03-11T13:46:06;95320.41;;;8.39;38.18
13604;BME280;24578;48.264;11.436;2023-03-11T13:50:30;95325.53;;;9.27;36.33
13604;BME280;24578;48.264;11.436;2023-03-11T13:53:46;95326.50;;;8.61;36.70
13604;BME280;24578;48.264;11.436;2023-03-11T13:57:35;95328.97;;;8.17;36.90
13604;BME280;24578;48.264;11.436;2023-03-11T14:00:59;95329.19;;;8.36;36.50
13604;BME280;24578;48.264;11.436;2023-03-11T14:04:31;95330.44;;;9.30;35.53
13604;BME280;24578;48.264;11.436;2023-03-11T14:07:53;95323.53;;;9.31;35.63
13604;BME280;24578;48.264;11.436;2023-03-11T14:11:16;95321.91;;;8.97;36.76
13604;BME280;24578;48.264;11.436;2023-03-11T14:21:48;95327.44;;;9.67;35.58
13604;BME280;24578;48.264;11.436;2023-03-11T14:25:21;95331.34;;;8.87;36.52
13604;BME280;24578;48.264;11.436;2023-03-11T14:28:56;95334.50;;;8.12;38.16
13604;BME280;24578;48.264;11.436;2023-03-11T14:32:28;95333.78;;;7.99;39.98
13604;BME280;24578;48.264;11.436;2023-03-11T14:35:57;95333.63;;;8.68;38.40
13604;BME280;24578;48.264;11.436;2023-03-11T14:39:35;95340.84;;;8.86;37.41
13604;BME280;24578;48.264;11.436;2023-03-11T14:43:04;95343.44;;;8.86;37.08
13604;BME280;24578;48.264;11.436;2023-03-11T14:46:28;95353.72;;;8.31;37.93
13604;BME280;24578;48.264;11.436;2023-03-11T14:49:52;95346.78;;;7.86;39.20
13604;BME280;24578;48.264;11.436;2023-03-11T14:53:22;95354.59;;;7.61;39.11
13604;BME280;24578;48.264;11.436;2023-03-11T14:56:57;95359.31;;;7.32;40.35
13604;BME280;24578;48.264;11.436;2023-03-11T15:00:29;95361.47;;;7.50;39.71
13604;BME280;24578;48.264;11.436;2023-03-11T15:07:35;95363.44;;;8.38;37.81
13604;BME280;24578;48.264;11.436;2023-03-11T15:14:36;95371.97;;;7.82;38.50
13604;BME280;24578;48.264;11.436;2023-03-11T15:18:24;95371.41;;;6.83;40.35
13604;BME280;24578;48.264;11.436;2023-03-11T15:21:50;95377.84;;;6.14;41.24
13604;BME280;24578;48.264;11.436;2023-03-11T15:25:17;95372.50;;;5.78;44.94
13604;BME280;24578;48.264;11.436;2023-03-11T15:28:39;95373.00;;;5.71;44.46
13604;BME280;24578;48.264;11.436;2023-03-11T15:32:41;95369.28;;;5.36;45.58
13604;BME280;24578;48.264;11.436;2023-03-11T15:36:03;95380.56;;;5.33;45.86
13604;BME280;24578;48.264;11.436;2023-03-11T15:42:48;95380.38;;;4.96;46.60
13604;BME280;24578;48.264;11.436;2023-03-11T15:46:10;95381.75;;;4.87;47.02
13604;BME280;24578;48.264;11.436;2023-03-11T15:49:32;95390.78;;;4.66;46.99
13604;BME280;24578;48.264;11.436;2023-03-11T15:52:56;95412.63;;;4.01;49.80
13604;BME280;24578;48.264;11.436;2023-03-11T15:56:23;95407.44;;;4.17;48.62
13604;BME280;24578;48.264;11.436;2023-03-11T15:59:46;95400.38;;;4.20;49.12
13604;BME280;24578;48.264;11.436;2023-03-11T16:03:09;95404.22;;;4.13;49.53
13604;BME280;24578;48.264;11.436;2023-03-11T16:06:31;95405.31;;;4.23;49.14
13604;BME280;24578;48.264;11.436;2023-03-11T16:09:52;95401.66;;;4.13;49.69
13604;BME280;24578;48.264;11.436;2023-03-11T16:13:15;95395.69;;;4.27;49.98
13604;BME280;24578;48.264;11.436;2023-03-11T16:16:37;95401.41;;;4.18;49.14
13604;BME280;24578;48.264;11.436;2023-03-11T16:19:59;95404.22;;;4.13;50.52
13604;BME280;24578;48.264;11.436;2023-03-11T16:23:24;95412.81;;;3.97;50.84
13604;BME280;24578;48.264;11.436;2023-03-11T16:26:46;95426.16;;;3.88;50.77
13604;BME280;24578;48.264;11.436;2023-03-11T16:30:09;95432.91;;;3.75;51.69
13604;BME280;24578;48.264;11.436;2023-03-11T16:33:31;95434.63;;;3.74;50.67
13604;BME280;24578;48.264;11.436;2023-03-11T16:36:54;95425.00;;;3.49;52.84
13604;BME280;24578;48.264;11.436;2023-03-11T16:40:20;95430.06;;;3.34;53.82
13604;BME280;24578;48.264;11.436;2023-03-11T16:43:42;95437.25;;;3.28;53.45
13604;BME280;24578;48.264;11.436;2023-03-11T16:47:04;95441.06;;;3.20;54.81
13604;BME280;24578;48.264;11.436;2023-03-11T16:50:27;95442.72;;;3.05;54.61
13604;BME280;24578;48.264;11.436;2023-03-11T16:53:49;95442.91;;;3.02;55.61
13604;BME280;24578;48.264;11.436;2023-03-11T16:57:10;95459.41;;;2.97;55.43
13604;BME280;24578;48.264;11.436;2023-03-11T17:00:32;95456.53;;;2.87;57.19
13604;BME280;24578;48.264;11.436;2023-03-11T17:03:54;95468.16;;;2.93;57.22
13604;BME280;24578;48.264;11.436;2023-03-11T17:07:16;95472.59;;;2.89;57.94
13604;BME280;24578;48.264;11.436;2023-03-11T17:10:44;95483.16;;;2.83;58.77
13604;BME280;24578;48.264;11.436;2023-03-11T17:14:06;95493.84;;;2.73;59.05
13604;BME280;24578;48.264;11.436;2023-03-11T17:17:27;95508.28;;;2.58;59.32
13604;BME280;24578;48.264;11.436;2023-03-11T17:20:49;95515.84;;;2.60;60.84
13604;BME280;24578;48.264;11.436;2023-03-11T17:24:11;95521.38;;;2.52;60.96
13604;BME280;24578;48.264;11.436;2023-03-11T17:27:33;95525.81;;;2.49;61.10
13604;BME280;24578;48.264;11.436;2023-03-11T17:30:55;95528.66;;;2.42;62.40
13604;BME280;24578;48.264;11.436;2023-03-11T17:34:17;95528.84;;;2.39;62.59
13604;BME280;24578;48.264;11.436;2023-03-11T17:37:38;95514.88;;;2.29;63.32
13604;BME280;24578;48.264;11.436;2023-03-11T17:41:06;95516.69;;;2.27;64.54
13604;BME280;24578;48.264;11.436;2023-03-11T17:44:28;95531.84;;;2.30;62.10
13604;BME280;24578;48.264;11.436;2023-03-11T17:47:49;95528.66;;;2.09;63.30
13604;BME280;24578;48.264;11.436;2023-03-11T17:51:17;95533.09;;;2.05;63.43
13604;BME280;24578;48.264;11.436;2023-03-11T17:54:39;95536.09;;;1.96;61.74
13604;BME280;24578;48.264;11.436;2023-03-11T17:58:01;95544.63;;;1.95;61.57
13604;BME280;24578;48.264;11.436;2023-03-11T18:01:25;95541.13;;;1.97;61.36
13604;BME280;24578;48.264;11.436;2023-03-11T18:04:51;95537.75;;;1.97;61.05
13604;BME280;24578;48.264;11.436;2023-03-11T18:08:14;95543.97;;;1.91;61.23
13604;BME280;24578;48.264;11.436;2023-03-11T18:11:35;95553.75;;;1.83;61.02
13604;BME280;24578;48.264;11.436;2023-03-11T18:14:57;95554.56;;;1.83;61.74
13604;BME280;24578;48.264;11.436;2023-03-11T18:18:19;95553.66;;;1.85;61.38
13604;BME280;24578;48.264;11.436;2023-03-11T18:21:41;95560.31;;;1.87;62.43
13604;BME280;24578;48.264;11.436;2023-03-11T18:25:03;95568.16;;;1.84;61.29
13604;BME280;24578;48.264;11.436;2023-03-11T18:28:25;95554.78;;;1.79;62.02
13604;BME280;24578;48.264;11.436;2023-03-11T18:31:46;95572.88;;;1.74;62.31
13604;BME280;24578;48.264;11.436;2023-03-11T18:35:08;95581.56;;;1.70;62.98
13604;BME280;24578;48.264;11.436;2023-03-11T18:38:30;95584.75;;;1.56;62.78
13604;BME280;24578;48.264;11.436;2023-03-11T18:41:52;95593.69;;;1.47;63.82
13604;BME280;24578;48.264;11.436;2023-03-11T18:45:14;95587.34;;;1.37;64.54
13604;BME280;24578;48.264;11.436;2023-03-11T18:48:37;95593.28;;;1.38;65.30
13604;BME280;24578;48.264;11.436;2023-03-11T18:51:59;95595.97;;;1.34;65.78
13604;BME280;24578;48.264;11.436;2023-03-11T18:55:20;95585.97;;;1.30;65.61
13604;BME280;24578;48.264;11.436;2023-03-11T18:58:43;95593.91;;;1.24;65.99
13604;BME280;24578;48.264;11.436;2023-03-11T19:02:05;95600.88;;;1.20;66.16
13604;BME280;24578;48.264;11.436;2023-03-11T19:05:27;95606.91;;;1.17;66.00
13604;BME280;24578;48.264;11.436;2023-03-11T19:08:48;95613.97;;;1.12;65.88
13604;BME280;24578;48.264;11.436;2023-03-11T19:12:10;95608.03;;;1.12;66.93
13604;BME280;24578;48.264;11.436;2023-03-11T19:15:37;95610.78;;;1.07;68.60
13604;BME280;24578;48.264;11.436;2023-03-11T19:18:59;95611.81;;;1.03;70.04
13604;BME280;24578;48.264;11.436;2023-03-11T19:22:21;95622.88;;;1.02;70.71
13604;BME280;24578;48.264;11.436;2023-03-11T19:25:43;95622.22;;;0.98;71.70